Rohrsburg, Pennsylvania
Current Conditions -  °F | °C
As of 11:55 PM on Saturday 22 Nov 2014 (Local Time) from KHZL Reporting Station
Clear Clear  
Wind Chill:   Ceiling: Unl
Heat Index:   Visibility: 10mi
Dew Point: -8°   Wind: 3mph
Humidity: 42%   Direction: 150°SSE
Pressure: 30.17"   Gusts: NA
Location:  41.1114°N, 76.3684°W
Report Text: KHZL 230455Z AUTO 15003KT 10SM CLR 04/M08 A3017 RMK AO2
Loading
Personal Weather Stations






























Interactive Weather Map New forecast layout! Learn more

10-Day Weather Forecast

Advertisements
Track Severe Weather on mobile